Bonfinopolis, Brazil
Current Conditions -  °F | °C
As of 10:00 AM on Tuesday 21 Oct 2014 (Local Time) from SBGO Reporting Station
Smoke Smoke  
Wind Chill: 77°   Ceiling: Unl
Heat Index: 79°   Visibility: 3mi
Dew Point: 64°   Wind: 8mph
Humidity: 65%   Direction: 130°SE
Pressure: 30.03"   Gusts: NA
Location:  16.62°S, 48.96°W
Report Text: SBGO 211200Z 13007KT 5000 FU NSC 25/18 Q1017
Loading
Personal Weather Stations






























Interactive Weather Map
Tropical Storm Tracking
New forecast layout! Learn more

10-Day Weather Forecast

Advertisements
Track Severe Weather on mobile